TimeEDT,TemperatureF,Dew PointF,Humidity,Sea Level PressureIn,VisibilityMPH,Wind Direction,Wind SpeedMPH,Gust SpeedMPH,PrecipitationIn,Events,Conditions,WindDirDegrees,DateUTC
12:56 AM,50.0,39.0,66,29.88,10.0,West,10.4,-,N/A,,Clear,280,2013-10-20 04:56:00
1:56 AM,50.0,39.0,66,29.91,10.0,West,15.0,-,N/A,,Mostly Cloudy,280,2013-10-20 05:56:00
2:56 AM,48.0,37.0,66,29.92,10.0,West,9.2,-,N/A,,Scattered Clouds,270,2013-10-20 06:56:00
3:56 AM,48.0,35.1,61,29.93,10.0,West,12.7,-,N/A,,Clear,280,2013-10-20 07:56:00
4:56 AM,46.0,35.1,66,29.95,10.0,West,5.8,-,N/A,,Clear,270,2013-10-20 08:56:00
5:56 AM,42.1,36.0,79,29.97,10.0,West,5.8,-,N/A,,Clear,260,2013-10-20 09:56:00
6:56 AM,43.0,35.1,74,29.98,10.0,West,8.1,-,N/A,,Clear,260,2013-10-20 10:56:00
7:56 AM,44.1,35.1,71,30.00,10.0,West,8.1,-,N/A,,Clear,260,2013-10-20 11:56:00
8:56 AM,48.0,37.0,66,30.02,10.0,West,4.6,-,N/A,,Clear,270,2013-10-20 12:56:00
9:56 AM,50.0,37.0,61,30.04,10.0,West,12.7,-,N/A,,Clear,260,2013-10-20 13:56:00
10:56 AM,53.1,37.9,57,30.04,10.0,West,6.9,17.3,N/A,,Clear,260,2013-10-20 14:56:00
11:56 AM,55.9,37.9,51,30.04,10.0,West,8.1,18.4,N/A,,Scattered Clouds,270,2013-10-20 15:56:00
12:56 PM,57.9,37.9,47,30.04,10.0,West,8.1,-,N/A,,Mostly Cloudy,270,2013-10-20 16:56:00
1:56 PM,60.1,37.0,42,30.02,10.0,West,9.2,-,N/A,,Partly Cloudy,280,2013-10-20 17:56:00
2:56 PM,60.1,36.0,41,30.01,10.0,WSW,6.9,-,N/A,,Scattered Clouds,240,2013-10-20 18:56:00
3:56 PM,61.0,34.0,36,30.01,10.0,Variable,5.8,-,N/A,,Mostly Cloudy,0,2013-10-20 19:56:00
4:56 PM,60.1,34.0,38,30.01,10.0,West,4.6,-,N/A,,Partly Cloudy,270,2013-10-20 20:56:00
5:56 PM,57.9,35.1,42,30.03,10.0,West,4.6,-,N/A,,Clear,260,2013-10-20 21:56:00
6:56 PM,52.0,39.0,61,30.04,10.0,Calm,Calm,-,N/A,,Clear,0,2013-10-20 22:56:00
7:56 PM,48.9,39.9,71,30.05,10.0,Calm,Calm,-,N/A,,Clear,0,2013-10-20 23:56:00
8:56 PM,51.1,41.0,68,30.06,10.0,NNW,5.8,-,N/A,,Clear,340,2013-10-21 00:56:00
9:56 PM,44.1,37.9,79,30.09,10.0,WSW,4.6,-,N/A,,Clear,240,2013-10-21 01:56:00
10:56 PM,45.0,39.0,80,30.09,10.0,Calm,Calm,-,N/A,,Clear,0,2013-10-21 02:56:00
11:56 PM,43.0,37.9,82,30.09,10.0,Calm,Calm,-,N/A,,Clear,0,2013-10-21 03:56:00